createdAt,value
2018-05-18T00:00:53.659Z,10.00
2018-05-18T08:31:12.469Z,17.90
2018-05-18T08:33:40.013Z,18.20
2018-05-18T08:36:07.463Z,18.80
2018-05-18T08:38:34.931Z,17.60
2018-05-18T13:02:14.038Z,21.50
2018-05-18T13:04:41.656Z,21.50
2018-05-18T13:07:13.628Z,21.80
2018-05-18T13:09:41.096Z,21.40
2018-05-18T13:12:08.667Z,21.70
2018-05-18T13:14:36.113Z,22.20
2018-05-18T13:17:03.667Z,22.10
2018-05-18T13:19:31.123Z,21.60
2018-05-18T13:21:58.642Z,20.60
2018-05-18T13:24:26.138Z,20.70
2018-05-18T13:26:53.707Z,21.00
2018-05-18T13:29:21.261Z,21.10
2018-05-18T13:31:48.713Z,21.40
2018-05-18T13:34:16.282Z,21.00
2018-05-18T13:36:43.821Z,20.90
2018-05-18T13:39:11.401Z,21.00
2018-05-18T13:41:39.865Z,21.20
2018-05-18T13:44:07.345Z,21.50
2018-05-18T13:46:36.565Z,22.00
2018-05-18T13:49:04.078Z,22.00
2018-05-18T13:51:31.638Z,21.70
2018-05-18T13:53:59.468Z,21.80
2018-05-18T13:56:26.982Z,21.20
2018-05-18T13:58:55.194Z,21.10
2018-05-18T14:01:22.881Z,21.00
2018-05-18T14:03:50.355Z,20.90
2018-05-18T14:06:17.897Z,21.00
2018-05-18T14:08:45.358Z,20.90
2018-05-18T14:11:13.237Z,20.90
2018-05-18T14:13:40.678Z,20.70
2018-05-18T14:16:08.231Z,20.20
2018-05-18T14:18:35.781Z,20.20
2018-05-18T14:21:03.307Z,20.00
2018-05-18T14:23:31.547Z,19.30
2018-05-18T14:25:58.999Z,19.30
2018-05-18T14:28:26.852Z,19.30
2018-05-18T14:30:54.312Z,19.30
2018-05-18T14:33:21.866Z,19.00
2018-05-18T14:35:49.298Z,19.10
2018-05-18T14:38:16.862Z,19.30
2018-05-18T14:40:44.311Z,19.30
2018-05-18T14:43:11.808Z,19.10
2018-05-18T14:45:39.241Z,19.20
2018-05-18T14:48:06.852Z,19.00
2018-05-18T14:50:34.251Z,18.80
2018-05-18T14:53:01.699Z,18.70
2018-05-18T14:55:29.166Z,18.50
2018-05-18T14:57:56.715Z,18.50
2018-05-18T15:00:24.275Z,18.70
2018-05-18T15:02:51.732Z,18.50
2018-05-18T15:05:19.203Z,18.60
2018-05-18T15:07:47.439Z,18.60
2018-05-18T15:10:14.912Z,18.50
2018-05-18T15:12:42.391Z,18.50
2018-05-18T15:15:09.868Z,18.70
2018-05-18T15:17:38.183Z,18.70
2018-05-18T15:20:05.627Z,18.70
2018-05-18T15:22:33.145Z,18.70
2018-05-18T15:25:02.254Z,18.50
2018-05-18T15:27:30.477Z,18.40
2018-05-18T15:29:57.928Z,18.40
2018-05-18T15:32:25.406Z,18.50
2018-05-18T15:34:53.611Z,18.70
2018-05-18T15:37:22.109Z,18.60
2018-05-18T15:39:49.782Z,18.60
2018-05-18T15:42:18.375Z,18.30
2018-05-18T15:44:46.079Z,18.20
2018-05-18T15:47:13.620Z,18.10
2018-05-18T15:49:41.240Z,17.70
2018-05-18T15:52:09.106Z,17.90
2018-05-18T15:54:36.547Z,17.90
2018-05-18T15:57:04.058Z,17.90
2018-05-18T15:59:31.534Z,17.80
2018-05-18T16:01:59.748Z,18.20
2018-05-18T16:04:27.303Z,18.10
2018-05-18T16:06:54.688Z,18.30
2018-05-18T16:09:22.139Z,18.10
2018-05-18T16:11:51.650Z,18.10
2018-05-18T16:14:19.205Z,18.20
2018-05-18T16:16:46.664Z,18.50
2018-05-18T16:19:15.089Z,18.50
2018-05-18T16:21:42.533Z,18.20
2018-05-18T16:24:10.774Z,18.10
2018-05-18T16:26:38.213Z,18.10
2018-05-18T16:29:05.787Z,18.20
2018-05-18T16:31:34.276Z,18.20
2018-05-18T16:34:01.824Z,18.00
2018-05-18T16:36:30.238Z,17.90
2018-05-18T16:38:58.489Z,17.70
2018-05-18T16:41:26.045Z,17.70
2018-05-18T16:43:53.586Z,17.80
2018-05-18T16:46:22.074Z,17.70
2018-05-18T16:48:49.619Z,17.70
2018-05-18T16:51:17.285Z,17.90
2018-05-18T16:53:44.830Z,17.80
2018-05-18T16:56:12.290Z,17.80
2018-05-18T16:58:40.461Z,17.70
2018-05-18T17:01:07.913Z,17.80
2018-05-18T17:03:36.402Z,17.90
2018-05-18T17:06:04.774Z,18.00
2018-05-18T17:08:32.239Z,18.20
2018-05-18T17:10:59.842Z,18.00
2018-05-18T17:13:28.062Z,18.00
2018-05-18T17:15:55.515Z,18.00
2018-05-18T17:18:23.117Z,17.90
2018-05-18T17:20:51.333Z,17.40
